sensor_id;sensor_type;location;lat;lon;timestamp;P1;durP1;ratioP1;P2;durP2;ratioP2
3253;SDS011;1639;42.804;23.342;2023-10-19T00:00:12;17.20;;;10.40;;
3253;SDS011;1639;42.804;23.342;2023-10-19T00:02:53;16.20;;;11.07;;
3253;SDS011;1639;42.804;23.342;2023-10-19T00:05:20;13.20;;;10.90;;
3253;SDS011;1639;42.804;23.342;2023-10-19T00:07:45;10.97;;;8.90;;
3253;SDS011;1639;42.804;23.342;2023-10-19T00:10:11;12.63;;;9.40;;
3253;SDS011;1639;42.804;23.342;2023-10-19T00:12:41;13.00;;;9.80;;
3253;SDS011;1639;42.804;23.342;2023-10-19T00:15:06;16.60;;;10.70;;
3253;SDS011;1639;42.804;23.342;2023-10-19T00:17:34;15.03;;;9.47;;
3253;SDS011;1639;42.804;23.342;2023-10-19T00:19:59;16.60;;;9.90;;
3253;SDS011;1639;42.804;23.342;2023-10-19T00:22:43;15.17;;;9.60;;
3253;SDS011;1639;42.804;23.342;2023-10-19T00:25:09;10.73;;;9.07;;
3253;SDS011;1639;42.804;23.342;2023-10-19T00:27:38;14.17;;;9.47;;
3253;SDS011;1639;42.804;23.342;2023-10-19T00:30:05;16.20;;;9.13;;
3253;SDS011;1639;42.804;23.342;2023-10-19T00:32:31;15.20;;;9.70;;
3253;SDS011;1639;42.804;23.342;2023-10-19T00:34:58;16.53;;;8.87;;
3253;SDS011;1639;42.804;23.342;2023-10-19T00:37:32;16.70;;;9.37;;
3253;SDS011;1639;42.804;23.342;2023-10-19T00:40:05;16.90;;;9.40;;
3253;SDS011;1639;42.804;23.342;2023-10-19T00:42:41;11.60;;;7.83;;
3253;SDS011;1639;42.804;23.342;2023-10-19T00:45:11;15.40;;;9.07;;
3253;SDS011;1639;42.804;23.342;2023-10-19T00:47:38;14.43;;;7.43;;
3253;SDS011;1639;42.804;23.342;2023-10-19T00:50:08;12.60;;;8.60;;
3253;SDS011;1639;42.804;23.342;2023-10-19T00:52:42;13.13;;;8.30;;
3253;SDS011;1639;42.804;23.342;2023-10-19T00:55:15;14.37;;;7.90;;
3253;SDS011;1639;42.804;23.342;2023-10-19T00:57:43;12.33;;;8.80;;
3253;SDS011;1639;42.804;23.342;2023-10-19T01:00:13;12.40;;;7.60;;
3253;SDS011;1639;42.804;23.342;2023-10-19T01:02:48;12.70;;;9.07;;
3253;SDS011;1639;42.804;23.342;2023-10-19T01:05:16;11.77;;;8.93;;
3253;SDS011;1639;42.804;23.342;2023-10-19T01:07:46;14.80;;;7.50;;
3253;SDS011;1639;42.804;23.342;2023-10-19T01:10:12;17.73;;;7.70;;
3253;SDS011;1639;42.804;23.342;2023-10-19T01:12:44;12.10;;;7.57;;
3253;SDS011;1639;42.804;23.342;2023-10-19T01:15:14;9.93;;;7.40;;
3253;SDS011;1639;42.804;23.342;2023-10-19T01:17:42;11.53;;;8.87;;
3253;SDS011;1639;42.804;23.342;2023-10-19T01:20:23;10.37;;;6.70;;
3253;SDS011;1639;42.804;23.342;2023-10-19T01:23:02;11.93;;;7.33;;
3253;SDS011;1639;42.804;23.342;2023-10-19T01:25:48;11.93;;;7.93;;
3253;SDS011;1639;42.804;23.342;2023-10-19T01:28:24;18.57;;;9.20;;
3253;SDS011;1639;42.804;23.342;2023-10-19T01:31:12;9.80;;;7.73;;
3253;SDS011;1639;42.804;23.342;2023-10-19T01:33:55;8.70;;;7.37;;
3253;SDS011;1639;42.804;23.342;2023-10-19T01:36:25;19.67;;;7.63;;
3253;SDS011;1639;42.804;23.342;2023-10-19T01:38:52;10.80;;;7.20;;
3253;SDS011;1639;42.804;23.342;2023-10-19T01:41:20;13.73;;;8.60;;
3253;SDS011;1639;42.804;23.342;2023-10-19T01:43:47;12.60;;;7.13;;
3253;SDS011;1639;42.804;23.342;2023-10-19T01:46:15;10.20;;;7.00;;
3253;SDS011;1639;42.804;23.342;2023-10-19T01:48:49;10.40;;;7.57;;
3253;SDS011;1639;42.804;23.342;2023-10-19T01:51:19;10.20;;;7.40;;
3253;SDS011;1639;42.804;23.342;2023-10-19T01:53:46;16.20;;;9.20;;
3253;SDS011;1639;42.804;23.342;2023-10-19T01:56:12;12.17;;;6.70;;
3253;SDS011;1639;42.804;23.342;2023-10-19T01:58:39;14.63;;;8.00;;
3253;SDS011;1639;42.804;23.342;2023-10-19T02:01:06;14.13;;;8.57;;
3253;SDS011;1639;42.804;23.342;2023-10-19T02:03:38;12.13;;;7.53;;
3253;SDS011;1639;42.804;23.342;2023-10-19T02:06:08;15.43;;;6.80;;
3253;SDS011;1639;42.804;23.342;2023-10-19T02:08:52;12.60;;;7.70;;
3253;SDS011;1639;42.804;23.342;2023-10-19T02:11:25;13.73;;;7.60;;
3253;SDS011;1639;42.804;23.342;2023-10-19T02:13:54;11.03;;;6.50;;
3253;SDS011;1639;42.804;23.342;2023-10-19T02:16:25;13.23;;;7.57;;
3253;SDS011;1639;42.804;23.342;2023-10-19T02:18:51;17.17;;;8.47;;
3253;SDS011;1639;42.804;23.342;2023-10-19T02:21:17;8.53;;;6.13;;
3253;SDS011;1639;42.804;23.342;2023-10-19T02:23:55;9.83;;;6.90;;
3253;SDS011;1639;42.804;23.342;2023-10-19T02:26:22;13.77;;;6.57;;
3253;SDS011;1639;42.804;23.342;2023-10-19T02:28:50;14.70;;;7.77;;
3253;SDS011;1639;42.804;23.342;2023-10-19T02:31:16;13.90;;;7.60;;
3253;SDS011;1639;42.804;23.342;2023-10-19T02:33:48;15.70;;;7.50;;
3253;SDS011;1639;42.804;23.342;2023-10-19T02:36:20;10.93;;;7.47;;
3253;SDS011;1639;42.804;23.342;2023-10-19T02:38:46;15.20;;;7.60;;
3253;SDS011;1639;42.804;23.342;2023-10-19T02:41:18;12.30;;;6.20;;
3253;SDS011;1639;42.804;23.342;2023-10-19T02:43:46;11.93;;;6.80;;
3253;SDS011;1639;42.804;23.342;2023-10-19T02:46:16;14.77;;;7.93;;
3253;SDS011;1639;42.804;23.342;2023-10-19T02:48:43;10.87;;;8.00;;
3253;SDS011;1639;42.804;23.342;2023-10-19T02:51:15;14.73;;;8.37;;
3253;SDS011;1639;42.804;23.342;2023-10-19T02:53:40;14.00;;;7.80;;
3253;SDS011;1639;42.804;23.342;2023-10-19T02:56:14;10.97;;;6.87;;
3253;SDS011;1639;42.804;23.342;2023-10-19T02:58:44;13.63;;;7.33;;
3253;SDS011;1639;42.804;23.342;2023-10-19T03:01:18;13.27;;;7.30;;
3253;SDS011;1639;42.804;23.342;2023-10-19T03:03:51;14.37;;;9.30;;
3253;SDS011;1639;42.804;23.342;2023-10-19T03:06:22;14.43;;;9.63;;
3253;SDS011;1639;42.804;23.342;2023-10-19T03:08:48;16.00;;;9.23;;
3253;SDS011;1639;42.804;23.342;2023-10-19T03:11:23;15.57;;;12.23;;
3253;SDS011;1639;42.804;23.342;2023-10-19T03:13:52;15.93;;;10.47;;
3253;SDS011;1639;42.804;23.342;2023-10-19T03:16:18;15.67;;;8.67;;
3253;SDS011;1639;42.804;23.342;2023-10-19T03:18:45;15.20;;;9.80;;
3253;SDS011;1639;42.804;23.342;2023-10-19T03:21:10;14.60;;;8.90;;
3253;SDS011;1639;42.804;23.342;2023-10-19T03:23:36;14.93;;;9.37;;
3253;SDS011;1639;42.804;23.342;2023-10-19T03:26:02;17.00;;;9.20;;
3253;SDS011;1639;42.804;23.342;2023-10-19T03:28:47;13.57;;;8.27;;
3253;SDS011;1639;42.804;23.342;2023-10-19T03:31:13;12.73;;;8.13;;
3253;SDS011;1639;42.804;23.342;2023-10-19T03:33:45;14.43;;;7.93;;
3253;SDS011;1639;42.804;23.342;2023-10-19T03:36:14;11.20;;;8.17;;
3253;SDS011;1639;42.804;23.342;2023-10-19T03:38:40;18.70;;;9.43;;
3253;SDS011;1639;42.804;23.342;2023-10-19T03:41:06;13.70;;;8.37;;
3253;SDS011;1639;42.804;23.342;2023-10-19T03:43:33;19.83;;;10.03;;
3253;SDS011;1639;42.804;23.342;2023-10-19T03:46:02;13.87;;;8.20;;
3253;SDS011;1639;42.804;23.342;2023-10-19T03:48:32;14.80;;;8.50;;
3253;SDS011;1639;42.804;23.342;2023-10-19T03:51:03;10.77;;;7.63;;
3253;SDS011;1639;42.804;23.342;2023-10-19T03:53:29;13.47;;;6.83;;
3253;SDS011;1639;42.804;23.342;2023-10-19T03:55:56;29.40;;;9.90;;
3253;SDS011;1639;42.804;23.342;2023-10-19T03:58:22;24.40;;;11.47;;
3253;SDS011;1639;42.804;23.342;2023-10-19T04:00:48;26.67;;;12.27;;
3253;SDS011;1639;42.804;23.342;2023-10-19T04:03:16;24.23;;;11.47;;
3253;SDS011;1639;42.804;23.342;2023-10-19T04:05:49;16.03;;;9.60;;
3253;SDS011;1639;42.804;23.342;2023-10-19T04:08:16;17.73;;;11.47;;
3253;SDS011;1639;42.804;23.342;2023-10-19T04:10:46;15.77;;;11.80;;
3253;SDS011;1639;42.804;23.342;2023-10-19T04:13:31;41.60;;;10.90;;
3253;SDS011;1639;42.804;23.342;2023-10-19T04:15:57;52.03;;;14.17;;
3253;SDS011;1639;42.804;23.342;2023-10-19T04:18:22;75.83;;;14.07;;
3253;SDS011;1639;42.804;23.342;2023-10-19T04:20:50;65.00;;;13.67;;
3253;SDS011;1639;42.804;23.342;2023-10-19T04:23:19;75.73;;;16.97;;
3253;SDS011;1639;42.804;23.342;2023-10-19T04:25:46;57.63;;;16.20;;
3253;SDS011;1639;42.804;23.342;2023-10-19T04:28:12;11.63;;;9.00;;
3253;SDS011;1639;42.804;23.342;2023-10-19T04:30:41;28.23;;;15.07;;
3253;SDS011;1639;42.804;23.342;2023-10-19T04:33:07;27.53;;;11.17;;
3253;SDS011;1639;42.804;23.342;2023-10-19T04:35:34;30.23;;;9.43;;
3253;SDS011;1639;42.804;23.342;2023-10-19T04:38:00;61.33;;;13.07;;
3253;SDS011;1639;42.804;23.342;2023-10-19T04:40:26;19.40;;;10.30;;
3253;SDS011;1639;42.804;23.342;2023-10-19T04:42:52;21.83;;;11.20;;
3253;SDS011;1639;42.804;23.342;2023-10-19T04:45:19;35.20;;;11.37;;
3253;SDS011;1639;42.804;23.342;2023-10-19T04:47:45;36.83;;;12.60;;
3253;SDS011;1639;42.804;23.342;2023-10-19T04:50:11;13.97;;;9.90;;
3253;SDS011;1639;42.804;23.342;2023-10-19T04:52:37;45.13;;;15.13;;
3253;SDS011;1639;42.804;23.342;2023-10-19T04:55:03;23.53;;;12.77;;
3253;SDS011;1639;42.804;23.342;2023-10-19T04:57:29;30.20;;;13.33;;
3253;SDS011;1639;42.804;23.342;2023-10-19T04:59:55;24.60;;;11.83;;
3253;SDS011;1639;42.804;23.342;2023-10-19T05:02:21;26.83;;;13.37;;
3253;SDS011;1639;42.804;23.342;2023-10-19T05:04:46;27.97;;;11.50;;
3253;SDS011;1639;42.804;23.342;2023-10-19T05:07:12;27.30;;;14.10;;
3253;SDS011;1639;42.804;23.342;2023-10-19T05:09:39;37.73;;;14.37;;
3253;SDS011;1639;42.804;23.342;2023-10-19T05:12:06;37.03;;;14.43;;
3253;SDS011;1639;42.804;23.342;2023-10-19T05:14:34;32.73;;;15.17;;
3253;SDS011;1639;42.804;23.342;2023-10-19T05:17:03;53.87;;;14.00;;
3253;SDS011;1639;42.804;23.342;2023-10-19T05:19:30;22.80;;;11.60;;
3253;SDS011;1639;42.804;23.342;2023-10-19T05:22:02;30.00;;;11.07;;
3253;SDS011;1639;42.804;23.342;2023-10-19T05:24:29;30.20;;;12.77;;
3253;SDS011;1639;42.804;23.342;2023-10-19T05:26:55;54.73;;;15.10;;
3253;SDS011;1639;42.804;23.342;2023-10-19T05:29:20;20.90;;;11.23;;
3253;SDS011;1639;42.804;23.342;2023-10-19T05:31:47;19.57;;;13.97;;
3253;SDS011;1639;42.804;23.342;2023-10-19T05:34:18;20.03;;;13.23;;
3253;SDS011;1639;42.804;23.342;2023-10-19T05:36:43;25.57;;;18.50;;
3253;SDS011;1639;42.804;23.342;2023-10-19T05:39:11;20.70;;;15.10;;
3253;SDS011;1639;42.804;23.342;2023-10-19T05:41:38;22.37;;;14.37;;
3253;SDS011;1639;42.804;23.342;2023-10-19T05:44:05;32.37;;;17.67;;
3253;SDS011;1639;42.804;23.342;2023-10-19T05:46:30;19.83;;;13.60;;
3253;SDS011;1639;42.804;23.342;2023-10-19T05:48:56;25.17;;;18.10;;
3253;SDS011;1639;42.804;23.342;2023-10-19T05:51:22;18.00;;;14.83;;
3253;SDS011;1639;42.804;23.342;2023-10-19T05:53:48;15.40;;;13.00;;
3253;SDS011;1639;42.804;23.342;2023-10-19T05:56:14;31.20;;;15.13;;
3253;SDS011;1639;42.804;23.342;2023-10-19T05:58:42;16.80;;;13.57;;
3253;SDS011;1639;42.804;23.342;2023-10-19T06:01:07;23.10;;;14.67;;
3253;SDS011;1639;42.804;23.342;2023-10-19T06:03:33;36.90;;;15.47;;
3253;SDS011;1639;42.804;23.342;2023-10-19T06:05:58;21.20;;;14.43;;
3253;SDS011;1639;42.804;23.342;2023-10-19T06:08:24;22.33;;;14.40;;
3253;SDS011;1639;42.804;23.342;2023-10-19T06:10:52;24.30;;;15.67;;
3253;SDS011;1639;42.804;23.342;2023-10-19T06:13:18;25.70;;;16.90;;
3253;SDS011;1639;42.804;23.342;2023-10-19T06:15:44;23.37;;;18.67;;
3253;SDS011;1639;42.804;23.342;2023-10-19T06:18:09;17.67;;;14.67;;
3253;SDS011;1639;42.804;23.342;2023-10-19T06:20:35;16.07;;;12.60;;
3253;SDS011;1639;42.804;23.342;2023-10-19T06:23:01;26.43;;;15.97;;
3253;SDS011;1639;42.804;23.342;2023-10-19T06:25:31;31.90;;;16.57;;
3253;SDS011;1639;42.804;23.342;2023-10-19T06:27:57;26.13;;;14.30;;
3253;SDS011;1639;42.804;23.342;2023-10-19T06:30:24;22.30;;;13.90;;
3253;SDS011;1639;42.804;23.342;2023-10-19T06:32:51;23.50;;;13.87;;
3253;SDS011;1639;42.804;23.342;2023-10-19T06:35:19;19.30;;;15.30;;
3253;SDS011;1639;42.804;23.342;2023-10-19T06:37:45;21.60;;;13.70;;
3253;SDS011;1639;42.804;23.342;2023-10-19T06:40:11;22.17;;;12.70;;
3253;SDS011;1639;42.804;23.342;2023-10-19T06:42:39;15.87;;;12.70;;
3253;SDS011;1639;42.804;23.342;2023-10-19T06:45:06;14.50;;;11.53;;
3253;SDS011;1639;42.804;23.342;2023-10-19T06:47:32;18.93;;;13.00;;
3253;SDS011;1639;42.804;23.342;2023-10-19T06:50:02;26.70;;;14.90;;
3253;SDS011;1639;42.804;23.342;2023-10-19T06:52:30;17.73;;;13.90;;
3253;SDS011;1639;42.804;23.342;2023-10-19T06:54:57;19.03;;;14.60;;
3253;SDS011;1639;42.804;23.342;2023-10-19T06:57:22;19.60;;;13.97;;
3253;SDS011;1639;42.804;23.342;2023-10-19T06:59:48;15.83;;;10.87;;
3253;SDS011;1639;42.804;23.342;2023-10-19T07:02:13;17.07;;;13.00;;
3253;SDS011;1639;42.804;23.342;2023-10-19T07:04:39;19.27;;;11.80;;
3253;SDS011;1639;42.804;23.342;2023-10-19T07:07:04;20.03;;;13.73;;
3253;SDS011;1639;42.804;23.342;2023-10-19T07:09:29;14.97;;;12.13;;
3253;SDS011;1639;42.804;23.342;2023-10-19T07:11:55;17.17;;;14.13;;
3253;SDS011;1639;42.804;23.342;2023-10-19T07:14:22;24.53;;;15.57;;
3253;SDS011;1639;42.804;23.342;2023-10-19T07:16:48;23.03;;;16.63;;
3253;SDS011;1639;42.804;23.342;2023-10-19T07:19:15;15.30;;;12.27;;
3253;SDS011;1639;42.804;23.342;2023-10-19T07:21:40;21.10;;;12.10;;
3253;SDS011;1639;42.804;23.342;2023-10-19T07:24:08;22.83;;;13.23;;
3253;SDS011;1639;42.804;23.342;2023-10-19T07:26:36;21.20;;;14.17;;
3253;SDS011;1639;42.804;23.342;2023-10-19T07:29:08;14.17;;;12.60;;
3253;SDS011;1639;42.804;23.342;2023-10-19T07:31:35;31.47;;;13.63;;
3253;SDS011;1639;42.804;23.342;2023-10-19T07:34:01;15.00;;;12.10;;
3253;SDS011;1639;42.804;23.342;2023-10-19T07:36:26;19.37;;;13.07;;
3253;SDS011;1639;42.804;23.342;2023-10-19T07:38:53;19.37;;;12.47;;
3253;SDS011;1639;42.804;23.342;2023-10-19T07:41:20;22.63;;;13.57;;
3253;SDS011;1639;42.804;23.342;2023-10-19T07:43:46;22.20;;;13.33;;
3253;SDS011;1639;42.804;23.342;2023-10-19T07:46:12;16.10;;;13.00;;
3253;SDS011;1639;42.804;23.342;2023-10-19T07:48:37;18.27;;;12.90;;
3253;SDS011;1639;42.804;23.342;2023-10-19T07:51:03;23.10;;;13.13;;
3253;SDS011;1639;42.804;23.342;2023-10-19T07:53:29;17.33;;;13.00;;
3253;SDS011;1639;42.804;23.342;2023-10-19T07:55:55;16.07;;;11.70;;
3253;SDS011;1639;42.804;23.342;2023-10-19T07:58:22;19.00;;;12.07;;
3253;SDS011;1639;42.804;23.342;2023-10-19T08:00:47;22.50;;;12.43;;
3253;SDS011;1639;42.804;23.342;2023-10-19T08:03:13;18.00;;;12.00;;
3253;SDS011;1639;42.804;23.342;2023-10-19T08:05:41;16.70;;;10.90;;
3253;SDS011;1639;42.804;23.342;2023-10-19T08:08:06;14.97;;;11.60;;
3253;SDS011;1639;42.804;23.342;2023-10-19T08:10:32;19.40;;;12.53;;
3253;SDS011;1639;42.804;23.342;2023-10-19T08:12:59;14.13;;;10.90;;
3253;SDS011;1639;42.804;23.342;2023-10-19T08:15:24;19.57;;;12.00;;
3253;SDS011;1639;42.804;23.342;2023-10-19T08:17:51;23.97;;;10.60;;
3253;SDS011;1639;42.804;23.342;2023-10-19T08:20:18;19.00;;;11.53;;
3253;SDS011;1639;42.804;23.342;2023-10-19T08:22:57;20.70;;;11.47;;
3253;SDS011;1639;42.804;23.342;2023-10-19T08:25:24;14.80;;;9.80;;
3253;SDS011;1639;42.804;23.342;2023-10-19T08:27:52;13.90;;;11.37;;
3253;SDS011;1639;42.804;23.342;2023-10-19T08:30:21;23.77;;;14.10;;
3253;SDS011;1639;42.804;23.342;2023-10-19T08:32:48;18.77;;;12.93;;
3253;SDS011;1639;42.804;23.342;2023-10-19T08:35:14;21.93;;;10.63;;
3253;SDS011;1639;42.804;23.342;2023-10-19T08:37:43;13.87;;;10.07;;
3253;SDS011;1639;42.804;23.342;2023-10-19T08:40:11;18.67;;;11.47;;
3253;SDS011;1639;42.804;23.342;2023-10-19T08:42:44;16.37;;;11.30;;
3253;SDS011;1639;42.804;23.342;2023-10-19T08:45:11;21.10;;;10.93;;
3253;SDS011;1639;42.804;23.342;2023-10-19T08:47:48;15.97;;;12.20;;
3253;SDS011;1639;42.804;23.342;2023-10-19T08:50:26;14.00;;;10.10;;
3253;SDS011;1639;42.804;23.342;2023-10-19T08:52:54;20.63;;;10.27;;
3253;SDS011;1639;42.804;23.342;2023-10-19T08:55:20;12.53;;;8.60;;
3253;SDS011;1639;42.804;23.342;2023-10-19T08:57:47;12.37;;;8.13;;
3253;SDS011;1639;42.804;23.342;2023-10-19T09:00:14;13.13;;;8.90;;
3253;SDS011;1639;42.804;23.342;2023-10-19T09:02:46;12.93;;;8.77;;
3253;SDS011;1639;42.804;23.342;2023-10-19T09:05:12;12.30;;;8.70;;
3253;SDS011;1639;42.804;23.342;2023-10-19T09:07:53;14.67;;;10.13;;
3253;SDS011;1639;42.804;23.342;2023-10-19T09:10:25;9.30;;;7.30;;
3253;SDS011;1639;42.804;23.342;2023-10-19T09:13:01;10.07;;;8.27;;
3253;SDS011;1639;42.804;23.342;2023-10-19T09:15:30;11.10;;;7.23;;
3253;SDS011;1639;42.804;23.342;2023-10-19T09:17:58;15.60;;;7.90;;
3253;SDS011;1639;42.804;23.342;2023-10-19T09:20:38;13.03;;;7.80;;
3253;SDS011;1639;42.804;23.342;2023-10-19T09:23:04;17.10;;;8.40;;
3253;SDS011;1639;42.804;23.342;2023-10-19T09:25:32;11.17;;;8.27;;
3253;SDS011;1639;42.804;23.342;2023-10-19T09:28:00;16.17;;;8.87;;
3253;SDS011;1639;42.804;23.342;2023-10-19T09:30:27;12.90;;;7.07;;
3253;SDS011;1639;42.804;23.342;2023-10-19T09:32:56;13.27;;;8.60;;
3253;SDS011;1639;42.804;23.342;2023-10-19T09:35:22;10.07;;;6.97;;
3253;SDS011;1639;42.804;23.342;2023-10-19T09:37:53;14.00;;;8.20;;
3253;SDS011;1639;42.804;23.342;2023-10-19T09:40:21;12.87;;;8.00;;
3253;SDS011;1639;42.804;23.342;2023-10-19T09:42:49;10.20;;;7.63;;
3253;SDS011;1639;42.804;23.342;2023-10-19T09:45:21;10.17;;;8.00;;
3253;SDS011;1639;42.804;23.342;2023-10-19T09:47:52;11.63;;;7.50;;
3253;SDS011;1639;42.804;23.342;2023-10-19T09:50:19;14.73;;;8.23;;
3253;SDS011;1639;42.804;23.342;2023-10-19T09:52:44;11.43;;;7.50;;
3253;SDS011;1639;42.804;23.342;2023-10-19T09:55:22;9.33;;;6.40;;
3253;SDS011;1639;42.804;23.342;2023-10-19T09:58:12;11.33;;;7.40;;
3253;SDS011;1639;42.804;23.342;2023-10-19T10:00:45;13.63;;;8.33;;
3253;SDS011;1639;42.804;23.342;2023-10-19T10:06:09;12.60;;;8.93;;
3253;SDS011;1639;42.804;23.342;2023-10-19T10:08:38;10.93;;;9.10;;
3253;SDS011;1639;42.804;23.342;2023-10-19T10:11:14;13.80;;;7.93;;
3253;SDS011;1639;42.804;23.342;2023-10-19T10:13:42;11.20;;;8.03;;
3253;SDS011;1639;42.804;23.342;2023-10-19T10:16:11;11.93;;;8.23;;
3253;SDS011;1639;42.804;23.342;2023-10-19T10:18:39;16.93;;;7.90;;
3253;SDS011;1639;42.804;23.342;2023-10-19T10:21:06;11.33;;;7.70;;
3253;SDS011;1639;42.804;23.342;2023-10-19T10:26:07;12.20;;;7.90;;
3253;SDS011;1639;42.804;23.342;2023-10-19T10:28:34;13.07;;;8.40;;
3253;SDS011;1639;42.804;23.342;2023-10-19T10:33:40;16.03;;;7.80;;
3253;SDS011;1639;42.804;23.342;2023-10-19T10:36:06;10.87;;;7.47;;
3253;SDS011;1639;42.804;23.342;2023-10-19T10:38:33;13.50;;;8.27;;
3253;SDS011;1639;42.804;23.342;2023-10-19T10:41:00;10.87;;;8.33;;
3253;SDS011;1639;42.804;23.342;2023-10-19T10:43:27;13.07;;;8.70;;
3253;SDS011;1639;42.804;23.342;2023-10-19T10:45:52;19.00;;;9.17;;
3253;SDS011;1639;42.804;23.342;2023-10-19T10:48:28;13.80;;;9.87;;
3253;SDS011;1639;42.804;23.342;2023-10-19T10:50:54;14.00;;;9.13;;
3253;SDS011;1639;42.804;23.342;2023-10-19T10:53:20;9.90;;;8.53;;
3253;SDS011;1639;42.804;23.342;2023-10-19T10:55:49;19.43;;;9.93;;
3253;SDS011;1639;42.804;23.342;2023-10-19T10:58:16;11.80;;;8.27;;
3253;SDS011;1639;42.804;23.342;2023-10-19T11:00:42;16.07;;;8.83;;
3253;SDS011;1639;42.804;23.342;2023-10-19T11:03:09;11.50;;;8.90;;
3253;SDS011;1639;42.804;23.342;2023-10-19T11:05:37;13.30;;;9.03;;
3253;SDS011;1639;42.804;23.342;2023-10-19T11:10:35;12.60;;;7.73;;
3253;SDS011;1639;42.804;23.342;2023-10-19T11:13:04;15.13;;;11.50;;
3253;SDS011;1639;42.804;23.342;2023-10-19T11:15:34;14.60;;;8.63;;
3253;SDS011;1639;42.804;23.342;2023-10-19T11:18:02;16.53;;;9.33;;
3253;SDS011;1639;42.804;23.342;2023-10-19T11:20:27;10.63;;;7.57;;
3253;SDS011;1639;42.804;23.342;2023-10-19T11:22:53;15.03;;;9.30;;
3253;SDS011;1639;42.804;23.342;2023-10-19T11:25:27;8.60;;;7.20;;
3253;SDS011;1639;42.804;23.342;2023-10-19T11:27:57;9.60;;;6.80;;
3253;SDS011;1639;42.804;23.342;2023-10-19T11:30:32;11.60;;;6.63;;
3253;SDS011;1639;42.804;23.342;2023-10-19T11:32:57;12.33;;;7.80;;
3253;SDS011;1639;42.804;23.342;2023-10-19T11:35:27;11.83;;;7.20;;
3253;SDS011;1639;42.804;23.342;2023-10-19T11:37:58;11.30;;;6.17;;
3253;SDS011;1639;42.804;23.342;2023-10-19T11:40:27;11.77;;;7.17;;
3253;SDS011;1639;42.804;23.342;2023-10-19T11:42:53;11.50;;;7.97;;
3253;SDS011;1639;42.804;23.342;2023-10-19T11:45:23;11.57;;;7.67;;
3253;SDS011;1639;42.804;23.342;2023-10-19T11:47:49;15.43;;;8.50;;
3253;SDS011;1639;42.804;23.342;2023-10-19T11:50:15;19.03;;;8.43;;
3253;SDS011;1639;42.804;23.342;2023-10-19T11:52:43;12.97;;;8.10;;
3253;SDS011;1639;42.804;23.342;2023-10-19T11:55:10;10.30;;;6.93;;
3253;SDS011;1639;42.804;23.342;2023-10-19T11:57:38;13.40;;;7.27;;
3253;SDS011;1639;42.804;23.342;2023-10-19T12:00:05;10.33;;;6.73;;
3253;SDS011;1639;42.804;23.342;2023-10-19T12:02:34;12.07;;;8.43;;
3253;SDS011;1639;42.804;23.342;2023-10-19T12:05:03;9.30;;;6.73;;
3253;SDS011;1639;42.804;23.342;2023-10-19T12:07:35;11.10;;;7.77;;
3253;SDS011;1639;42.804;23.342;2023-10-19T12:10:05;15.67;;;7.33;;
3253;SDS011;1639;42.804;23.342;2023-10-19T12:12:32;10.00;;;6.67;;
3253;SDS011;1639;42.804;23.342;2023-10-19T12:14:58;10.80;;;7.50;;
3253;SDS011;1639;42.804;23.342;2023-10-19T12:17:24;10.80;;;7.90;;
3253;SDS011;1639;42.804;23.342;2023-10-19T12:19:51;13.30;;;7.70;;
3253;SDS011;1639;42.804;23.342;2023-10-19T12:22:17;13.90;;;8.30;;
3253;SDS011;1639;42.804;23.342;2023-10-19T12:24:42;8.73;;;6.63;;
3253;SDS011;1639;42.804;23.342;2023-10-19T12:27:09;13.50;;;7.50;;
3253;SDS011;1639;42.804;23.342;2023-10-19T12:29:34;12.47;;;6.67;;
3253;SDS011;1639;42.804;23.342;2023-10-19T12:31:59;10.67;;;7.80;;
3253;SDS011;1639;42.804;23.342;2023-10-19T12:34:25;8.87;;;6.47;;
3253;SDS011;1639;42.804;23.342;2023-10-19T12:36:54;11.53;;;7.00;;
3253;SDS011;1639;42.804;23.342;2023-10-19T12:39:22;13.23;;;8.53;;
3253;SDS011;1639;42.804;23.342;2023-10-19T12:42:06;12.57;;;7.50;;
3253;SDS011;1639;42.804;23.342;2023-10-19T12:44:33;10.80;;;7.00;;
3253;SDS011;1639;42.804;23.342;2023-10-19T12:47:04;11.23;;;7.40;;
3253;SDS011;1639;42.804;23.342;2023-10-19T12:49:34;9.67;;;7.50;;
3253;SDS011;1639;42.804;23.342;2023-10-19T12:52:00;11.50;;;7.53;;
3253;SDS011;1639;42.804;23.342;2023-10-19T12:54:28;18.37;;;7.80;;
3253;SDS011;1639;42.804;23.342;2023-10-19T12:56:54;12.80;;;7.10;;
3253;SDS011;1639;42.804;23.342;2023-10-19T12:59:20;12.87;;;7.33;;
3253;SDS011;1639;42.804;23.342;2023-10-19T13:01:45;7.13;;;5.20;;
3253;SDS011;1639;42.804;23.342;2023-10-19T13:04:14;11.03;;;7.17;;
3253;SDS011;1639;42.804;23.342;2023-10-19T13:06:43;7.90;;;5.80;;
3253;SDS011;1639;42.804;23.342;2023-10-19T13:09:09;9.77;;;6.13;;
3253;SDS011;1639;42.804;23.342;2023-10-19T13:11:35;10.93;;;6.63;;
3253;SDS011;1639;42.804;23.342;2023-10-19T13:14:00;8.53;;;5.37;;
3253;SDS011;1639;42.804;23.342;2023-10-19T13:16:26;11.73;;;5.23;;
3253;SDS011;1639;42.804;23.342;2023-10-19T13:18:52;11.67;;;6.33;;
3253;SDS011;1639;42.804;23.342;2023-10-19T13:21:18;8.67;;;5.90;;
3253;SDS011;1639;42.804;23.342;2023-10-19T13:23:47;8.20;;;5.20;;
3253;SDS011;1639;42.804;23.342;2023-10-19T13:26:13;9.63;;;6.37;;
3253;SDS011;1639;42.804;23.342;2023-10-19T13:28:45;8.03;;;5.60;;
3253;SDS011;1639;42.804;23.342;2023-10-19T13:31:12;12.40;;;5.60;;
3253;SDS011;1639;42.804;23.342;2023-10-19T13:33:41;16.03;;;6.13;;
3253;SDS011;1639;42.804;23.342;2023-10-19T13:36:08;8.57;;;5.60;;
3253;SDS011;1639;42.804;23.342;2023-10-19T13:38:34;9.80;;;5.43;;
3253;SDS011;1639;42.804;23.342;2023-10-19T13:41:03;9.60;;;6.43;;
3253;SDS011;1639;42.804;23.342;2023-10-19T13:43:32;9.40;;;5.93;;
3253;SDS011;1639;42.804;23.342;2023-10-19T13:45:58;10.27;;;6.90;;
3253;SDS011;1639;42.804;23.342;2023-10-19T13:48:24;12.83;;;7.17;;
3253;SDS011;1639;42.804;23.342;2023-10-19T13:50:50;8.90;;;5.83;;
3253;SDS011;1639;42.804;23.342;2023-10-19T13:53:18;11.93;;;6.10;;
3253;SDS011;1639;42.804;23.342;2023-10-19T13:55:43;14.40;;;7.13;;
3253;SDS011;1639;42.804;23.342;2023-10-19T13:58:09;11.63;;;6.57;;
3253;SDS011;1639;42.804;23.342;2023-10-19T14:00:36;8.90;;;6.50;;
3253;SDS011;1639;42.804;23.342;2023-10-19T14:03:04;8.37;;;6.47;;
3253;SDS011;1639;42.804;23.342;2023-10-19T14:05:35;9.37;;;5.90;;
3253;SDS011;1639;42.804;23.342;2023-10-19T14:08:05;8.43;;;5.83;;
3253;SDS011;1639;42.804;23.342;2023-10-19T14:10:32;8.07;;;5.87;;
3253;SDS011;1639;42.804;23.342;2023-10-19T14:12:58;9.90;;;6.20;;
3253;SDS011;1639;42.804;23.342;2023-10-19T14:15:24;11.03;;;5.97;;
3253;SDS011;1639;42.804;23.342;2023-10-19T14:17:50;9.83;;;5.80;;
3253;SDS011;1639;42.804;23.342;2023-10-19T14:20:16;9.97;;;6.00;;
3253;SDS011;1639;42.804;23.342;2023-10-19T14:22:43;12.67;;;5.83;;
3253;SDS011;1639;42.804;23.342;2023-10-19T14:25:13;8.60;;;5.80;;
3253;SDS011;1639;42.804;23.342;2023-10-19T14:27:42;9.57;;;5.60;;
3253;SDS011;1639;42.804;23.342;2023-10-19T14:30:12;7.90;;;5.10;;
3253;SDS011;1639;42.804;23.342;2023-10-19T14:32:42;11.43;;;5.87;;
3253;SDS011;1639;42.804;23.342;2023-10-19T14:35:10;15.57;;;5.67;;
3253;SDS011;1639;42.804;23.342;2023-10-19T14:37:39;17.13;;;4.80;;
3253;SDS011;1639;42.804;23.342;2023-10-19T14:40:09;8.50;;;5.13;;
3253;SDS011;1639;42.804;23.342;2023-10-19T14:42:39;9.77;;;5.27;;
3253;SDS011;1639;42.804;23.342;2023-10-19T14:45:08;13.73;;;6.87;;
3253;SDS011;1639;42.804;23.342;2023-10-19T14:47:38;10.63;;;5.63;;
3253;SDS011;1639;42.804;23.342;2023-10-19T14:50:05;24.07;;;7.03;;
3253;SDS011;1639;42.804;23.342;2023-10-19T14:52:39;8.57;;;6.07;;
3253;SDS011;1639;42.804;23.342;2023-10-19T14:55:05;9.33;;;5.10;;
3253;SDS011;1639;42.804;23.342;2023-10-19T14:57:32;14.03;;;6.57;;
3253;SDS011;1639;42.804;23.342;2023-10-19T14:59:58;12.73;;;7.00;;
3253;SDS011;1639;42.804;23.342;2023-10-19T15:02:34;9.77;;;8.10;;